Time;durP1;ratioP1;P1;durP2;ratioP2;P2;SDS_P1;SDS_P2;PMS_P1;PMS_P2;Temp;Humidity;BMP_temperature;BMP_pressure;BME280_temperature;BME280_humidity;BME280_pressure;Samples;Min_cycle;Max_cycle;Signal;HPM_P1;HPM_P2
2023/10/16 00:01:38;;;;;;;9.48;2.65;;;;;;;-146.27;84.49;83547.44;5021737;28;20371;-69
2023/10/16 00:04:06;;;;;;;5.00;2.17;;;;;;;-146.27;84.80;83587.63;5014726;28;20393;-69
2023/10/16 00:06:34;;;;;;;4.60;2.55;;;;;;;-146.27;84.58;83555.50;5011176;28;20493;-69
2023/10/16 00:09:15;;;;;;;9.88;2.30;;;;;;;-146.27;85.79;83559.50;5022470;28;20465;-69
2023/10/16 00:11:41;;;;;;;9.73;2.60;;;;;;;-146.27;86.25;83535.41;5021956;28;20469;-70
2023/10/16 00:14:18;;;;;;;7.03;2.22;;;;;;;-146.27;85.78;83549.47;5026139;28;20033;-69
2023/10/16 00:16:44;;;;;;;7.32;2.42;;;;;;;-146.27;86.08;83525.34;5022354;28;20049;-69
2023/10/16 00:19:11;;;;;;;5.78;2.15;;;;;;;-146.27;85.41;83541.41;5029801;28;20068;-70
2023/10/16 00:21:43;;;;;;;8.65;2.47;;;;;;;-146.27;85.75;83537.41;5024178;28;20104;-70
2023/10/16 00:24:09;;;;;;;6.28;2.15;;;;;;;-146.27;86.18;83537.41;5014157;28;20055;-70
2023/10/16 00:26:35;;;;;;;8.82;2.78;;;;;;;-146.27;85.76;83533.38;5019868;28;20109;-69
2023/10/16 00:31:44;;;;;;;;;;;;;;;-146.27;84.74;83561.53;5018990;28;20124;-69
2023/10/16 00:34:09;;;;;;;7.63;2.38;;;;;;;-146.27;84.67;83571.56;5025276;28;20432;-69
2023/10/16 00:36:35;;;;;;;4.55;1.85;;;;;;;-146.27;84.45;83569.56;5024868;28;20034;-69
2023/10/16 00:39:12;;;;;;;9.57;2.30;;;;;;;-146.27;84.94;83567.53;5028899;28;20026;-68
2023/10/16 00:41:39;;;;;;;10.32;2.10;;;;;;;-146.27;85.18;83589.66;5020015;28;20079;-69
2023/10/16 00:44:05;;;;;;;3.10;2.08;;;;;;;-146.27;84.95;83597.69;5016867;28;20452;-69
2023/10/16 00:46:37;;;;;;;5.32;2.25;;;;;;;-146.27;85.09;83611.75;5022809;28;20029;-69
2023/10/16 00:49:06;;;;;;;4.20;2.28;;;;;;;-146.27;84.98;83617.78;5021305;28;20026;-69
2023/10/16 00:51:33;;;;;;;5.45;2.10;;;;;;;-146.27;84.82;83621.81;5026501;28;20131;-69
2023/10/16 00:53:59;;;;;;;4.43;1.90;;;;;;;-146.27;84.58;83607.72;5026499;28;20120;-69
2023/10/16 00:56:27;;;;;;;5.25;2.10;;;;;;;-146.27;84.55;83641.91;5026606;28;20103;-69
2023/10/16 00:58:55;;;;;;;4.85;1.90;;;;;;;-146.27;84.88;83619.78;5028046;28;20026;-69
2023/10/16 01:01:23;;;;;;;4.35;1.90;;;;;;;-146.27;85.10;83619.78;5024152;28;20034;-69
2023/10/16 01:03:48;;;;;;;10.73;2.30;;;;;;;-146.27;85.27;83643.91;5011586;28;20375;-69
2023/10/16 01:06:19;;;;;;;5.72;1.90;;;;;;;-146.27;85.54;83647.91;5014551;28;20029;-69
2023/10/16 01:08:51;;;;;;;9.38;2.35;;;;;;;-146.27;85.70;83625.81;5017357;28;20108;-68
2023/10/16 01:11:22;;;;;;;8.05;2.25;;;;;;;-146.27;85.83;83627.81;5017980;28;20437;-68
2023/10/16 01:13:48;;;;;;;7.03;2.05;;;;;;;-146.27;86.20;83659.97;5022101;28;20083;-69
2023/10/16 01:16:18;;;;;;;6.18;2.08;;;;;;;-146.27;86.10;83625.81;5022428;28;20087;-69
2023/10/16 01:18:45;;;;;;;4.88;1.90;;;;;;;-146.27;85.58;83692.13;5019882;28;20060;-69
2023/10/16 01:21:13;;;;;;;4.95;2.00;;;;;;;-146.27;86.08;83670.03;5019030;28;20049;-68
2023/10/16 01:23:40;;;;;;;9.00;1.67;;;;;;;-146.27;86.43;83694.13;5008923;28;20055;-69
2023/10/16 01:26:06;;;;;;;11.55;2.15;;;;;;;-146.27;86.90;83641.91;5025189;28;20053;-68
2023/10/16 01:28:32;;;;;;;6.68;2.00;;;;;;;-146.27;87.24;83662.00;5016370;28;20033;-68
2023/10/16 01:31:00;;;;;;;5.65;2.00;;;;;;;-146.27;86.08;83686.09;5024509;28;20029;-68
2023/10/16 01:33:25;;;;;;;6.00;1.63;;;;;;;-146.27;85.45;83672.03;5010720;28;20022;-68
2023/10/16 01:35:50;;;;;;;5.32;2.00;;;;;;;-146.27;86.33;83686.09;5012040;28;20037;-69
2023/10/16 01:38:19;;;;;;;6.03;1.95;;;;;;;-146.27;85.51;83692.13;5019703;28;20029;-68
2023/10/16 01:43:31;;;;;;;8.25;1.83;;;;;;;-146.27;85.87;83694.13;5010358;28;20069;-68
2023/10/16 01:46:03;;;;;;;5.13;1.85;;;;;;;-146.27;85.29;83756.44;5014653;28;20080;-68
2023/10/16 01:48:29;;;;;;;11.85;3.47;;;;;;;-146.27;85.83;83720.25;5028248;28;20021;-68
2023/10/16 01:50:56;;;;;;;3.90;2.03;;;;;;;-146.27;86.22;83742.38;5023166;28;20037;-69
2023/10/16 01:53:25;;;;;;;3.92;1.88;;;;;;;-146.27;85.98;83710.22;5010804;28;20088;-69
2023/10/16 01:55:54;;;;;;;3.75;1.52;;;;;;;-146.27;86.15;83752.41;5023287;28;20112;-69
2023/10/16 01:58:24;;;;;;;4.35;2.38;;;;;;;-146.27;86.79;83742.38;5025582;28;20036;-69
2023/10/16 02:00:52;;;;;;;2.85;2.13;;;;;;;-146.27;86.51;83776.53;5020390;28;20029;-68
2023/10/16 02:03:18;;;;;;;4.35;1.83;;;;;;;-146.27;86.23;83752.41;5021579;28;20055;-69
2023/10/16 02:05:46;;;;;;;5.40;2.08;;;;;;;-146.27;86.85;83752.41;5019387;28;20026;-69
2023/10/16 02:08:14;;;;;;;13.63;2.20;;;;;;;-146.27;86.81;83680.06;5020039;28;20041;-69
2023/10/16 02:10:43;;;;;;;4.45;1.63;;;;;;;-146.27;86.34;83738.34;5022415;28;20029;-69
2023/10/16 02:13:10;;;;;;;4.63;1.63;;;;;;;-146.27;86.27;83668.00;5009965;28;20125;-69
2023/10/16 02:15:36;;;;;;;10.40;2.15;;;;;;;-146.27;85.87;83700.16;5023838;28;20100;-68
2023/10/16 02:18:05;;;;;;;5.72;1.42;;;;;;;-146.27;85.95;83702.19;5014654;28;20034;-68
2023/10/16 02:20:31;;;;;;;4.22;1.77;;;;;;;-146.27;86.26;83756.44;5019882;28;20025;-69
2023/10/16 02:22:59;;;;;;;6.93;1.65;;;;;;;-146.27;86.19;83734.31;5015346;28;20061;-69
2023/10/16 02:25:25;;;;;;;5.07;1.90;;;;;;;-146.27;86.94;83694.13;5015739;28;20547;-68
2023/10/16 02:27:51;;;;;;;9.73;1.92;;;;;;;-146.27;86.35;83702.19;5026989;28;20036;-69
2023/10/16 02:32:53;;;;;;;7.45;1.42;;;;;;;-146.27;86.59;83734.31;5029862;28;20038;-69
2023/10/16 02:35:21;;;;;;;4.28;1.98;;;;;;;-146.27;86.18;83700.16;5023983;28;20036;-68
2023/10/16 02:37:53;;;;;;;7.88;2.35;;;;;;;-146.27;86.05;83750.41;5020808;28;20022;-69
2023/10/16 02:40:25;;;;;;;6.72;2.08;;;;;;;-146.27;86.02;83722.28;5028553;28;20507;-68
2023/10/16 02:42:52;;;;;;;3.92;1.45;;;;;;;-146.27;85.94;83698.16;5019856;28;20022;-69
2023/10/16 02:45:26;;;;;;;8.73;2.28;;;;;;;-146.27;86.09;83740.34;5019591;28;20040;-68
2023/10/16 02:47:53;;;;;;;3.85;1.58;;;;;;;-146.27;85.87;83734.31;5021214;28;20117;-68
2023/10/16 02:50:19;;;;;;;7.88;1.55;;;;;;;-146.27;85.72;83750.41;5014119;28;20705;-68
2023/10/16 02:52:48;;;;;;;9.18;2.00;;;;;;;-146.27;85.92;83800.63;5020886;28;20098;-68
2023/10/16 02:55:14;;;;;;;4.95;1.85;;;;;;;-146.27;86.27;83726.28;5026034;28;20030;-69
2023/10/16 02:57:40;;;;;;;6.78;1.70;;;;;;;-146.27;86.42;83730.31;5031672;28;20116;-69
2023/10/16 03:00:34;;;;;;;8.85;1.50;;;;;;;-146.27;86.37;83734.31;5029024;28;20036;-68
2023/10/16 03:02:58;;;;;;;2.38;1.52;;;;;;;-146.27;85.39;83696.16;5026398;28;20033;-68
2023/10/16 03:05:24;;;;;;;6.57;1.77;;;;;;;-146.27;85.96;83718.25;5024540;28;20028;-68
2023/10/16 03:07:50;;;;;;;5.63;1.80;;;;;;;-146.27;85.65;83730.31;5024288;28;20021;-69
2023/10/16 03:10:17;;;;;;;4.43;1.63;;;;;;;-146.27;86.45;83746.38;5022395;28;20033;-69
2023/10/16 03:12:43;;;;;;;4.03;1.73;;;;;;;-146.27;86.12;83726.28;5024171;28;20457;-69
2023/10/16 03:15:30;;;;;;;7.95;1.73;;;;;;;-146.27;86.10;83718.25;5024801;28;20045;-69
2023/10/16 03:17:55;;;;;;;5.93;2.15;;;;;;;-146.27;85.80;83758.44;5024846;28;20037;-69
2023/10/16 03:20:23;;;;;;;5.93;1.45;;;;;;;-146.27;86.29;83726.28;5026176;28;20123;-68
2023/10/16 03:22:53;;;;;;;6.75;1.73;;;;;;;-146.27;86.06;83770.50;5019589;28;20036;-68
2023/10/16 03:25:25;;;;;;;8.65;1.92;;;;;;;-146.27;86.32;83748.41;5017049;28;20038;-68
2023/10/16 03:27:52;;;;;;;7.95;1.65;;;;;;;-146.27;85.99;83718.25;5019991;28;20057;-68
2023/10/16 03:30:19;;;;;;;4.68;1.90;;;;;;;-146.27;86.34;83712.22;5019312;28;20073;-68
2023/10/16 03:32:45;;;;;;;6.45;1.85;;;;;;;-146.27;86.77;83702.19;5030979;28;20075;-69
2023/10/16 03:35:14;;;;;;;8.13;1.95;;;;;;;-146.27;86.30;83702.19;5024165;28;20037;-69
2023/10/16 03:37:40;;;;;;;4.28;1.67;;;;;;;-146.27;86.59;83714.22;5017166;28;20109;-68
2023/10/16 03:40:11;;;;;;;3.28;2.05;;;;;;;-146.27;86.48;83702.19;5012035;28;20104;-68
2023/10/16 03:42:40;;;;;;;6.47;2.00;;;;;;;-146.27;87.02;83698.16;5029298;28;20481;-68
2023/10/16 03:45:06;;;;;;;5.50;2.00;;;;;;;-146.27;86.75;83704.19;5017039;28;20030;-69
2023/10/16 03:47:33;;;;;;;7.78;2.13;;;;;;;-146.27;86.87;83694.13;5019966;28;20029;-68
2023/10/16 03:49:59;;;;;;;5.82;2.22;;;;;;;-146.27;86.10;83690.13;5029548;28;20112;-69
2023/10/16 03:52:26;;;;;;;8.82;2.00;;;;;;;-146.27;85.83;83720.25;5012481;28;20030;-68
2023/10/16 03:54:53;;;;;;;5.68;1.98;;;;;;;-146.27;86.03;83694.13;5028383;28;20021;-69
2023/10/16 03:57:20;;;;;;;2.30;1.42;;;;;;;-146.27;86.02;83686.09;5011756;28;20033;-68
2023/10/16 03:59:47;;;;;;;4.28;1.88;;;;;;;-146.27;85.91;83746.38;5028676;28;20037;-69
2023/10/16 04:02:23;;;;;;;6.15;1.50;;;;;;;-146.27;86.06;83718.25;5027923;28;20072;-70
2023/10/16 04:04:53;;;;;;;5.13;1.83;;;;;;;-146.27;86.08;83617.78;5021891;28;20037;-69
2023/10/16 04:07:22;;;;;;;8.20;1.73;;;;;;;-146.27;86.53;83718.25;5025017;28;20035;-69
2023/10/16 04:09:50;;;;;;;4.32;1.95;;;;;;;-146.27;86.31;83718.25;5021288;28;20039;-69
2023/10/16 04:12:20;;;;;;;5.72;2.13;;;;;;;-146.27;86.58;83696.16;5029125;28;20041;-69
2023/10/16 04:14:50;;;;;;;4.93;1.83;;;;;;;-146.27;86.61;83684.09;5012008;28;20053;-70
2023/10/16 04:17:18;;;;;;;4.78;1.90;;;;;;;-146.27;86.48;83662.00;5011074;28;20179;-69
2023/10/16 04:20:42;;;;;;;3.97;1.70;;;;;;;-146.27;86.59;83694.13;5018709;28;20048;-69
2023/10/16 04:22:49;;;;;;;7.50;1.90;;;;;;;-146.27;86.76;83708.22;5017211;28;20041;-69
2023/10/16 04:25:18;;;;;;;6.40;1.65;;;;;;;-146.27;87.13;83698.16;5017554;28;20112;-70
2023/10/16 04:27:44;;;;;;;7.93;2.05;;;;;;;-146.27;87.64;83696.16;5023578;28;20021;-69
2023/10/16 04:33:03;;;;;;;6.35;1.75;;;;;;;-146.27;87.05;83633.84;5013224;28;20030;-69
2023/10/16 04:35:32;;;;;;;3.42;1.77;;;;;;;-146.27;87.26;83686.09;5026476;28;20051;-69
2023/10/16 04:43:51;;;;;;;2.72;1.90;;;;;;;-146.27;88.52;83666.00;5023701;28;20052;-70
2023/10/16 04:46:20;;;;;;;4.53;1.90;;;;;;;-146.27;88.68;83649.94;5021599;28;20018;-70
2023/10/16 04:48:49;;;;;;;6.20;2.20;;;;;;;-146.27;88.38;83666.00;5016067;28;20029;-69
2023/10/16 04:51:22;;;;;;;2.92;1.75;;;;;;;-146.27;88.41;83595.69;5018893;28;20112;-69
2023/10/16 04:53:58;;;;;;;8.98;2.13;;;;;;;-146.27;88.03;83623.81;5021624;28;20405;-69
2023/10/16 04:56:57;;;;;;;5.85;1.83;;;;;;;-146.27;87.44;83633.84;5018888;28;20644;-69
2023/10/16 05:02:16;;;;;;;4.20;1.70;;;;;;;-146.27;87.50;83631.84;5048242;28;20043;-70
2023/10/16 05:18:43;;;;;;;6.47;1.75;;;;;;;-146.27;88.47;83589.66;5025033;28;20511;-69
2023/10/16 06:15:51;;;;;;;;;;;;;;;-146.27;88.18;83581.59;5037972;28;20132;-68
2023/10/16 06:18:17;;;;;;;7.57;2.50;;;;;;;-146.27;87.95;83537.41;5027901;28;20003;-70
2023/10/16 06:20:43;;;;;;;8.00;2.92;;;;;;;-146.27;88.27;83557.50;5024543;28;20025;-70
2023/10/16 06:23:10;;;;;;;10.05;2.53;;;;;;;-146.27;88.11;83595.69;5025551;28;20049;-70
2023/10/16 06:25:37;;;;;;;10.13;2.45;;;;;;;-146.27;88.24;83589.66;5014995;28;20026;-70
2023/10/16 06:28:10;;;;;;;11.32;2.78;;;;;;;-146.27;88.40;83585.63;5026304;28;20137;-69
2023/10/16 06:30:37;;;;;;;6.80;3.20;;;;;;;-146.27;88.40;83569.56;5027218;28;20033;-69
2023/10/16 06:33:05;;;;;;;5.78;3.00;;;;;;;-146.27;88.43;83567.53;5029213;28;20030;-69
2023/10/16 06:35:31;;;;;;;6.53;2.67;;;;;;;-146.27;88.78;83557.50;5029802;28;20481;-70
2023/10/16 06:37:56;;;;;;;5.65;2.80;;;;;;;-146.27;89.09;83517.31;5022829;28;20034;-69
2023/10/16 06:40:24;;;;;;;7.90;3.92;;;;;;;-146.27;88.98;83547.44;5028208;28;20470;-70
2023/10/16 06:42:54;;;;;;;8.82;2.95;;;;;;;-146.27;88.94;83565.53;5015688;28;20100;-68
2023/10/16 06:45:19;;;;;;;14.02;3.35;;;;;;;-146.27;89.16;83553.47;5023244;28;20105;-68
2023/10/16 06:47:48;;;;;;;8.15;3.33;;;;;;;-146.27;88.93;83517.31;5026497;28;20531;-68
2023/10/16 06:52:54;;;;;;;4.55;2.95;;;;;;;-146.27;89.06;83511.28;5031774;28;20116;-68
2023/10/16 06:55:21;;;;;;;7.97;3.30;;;;;;;-146.27;89.08;83531.38;5023000;28;20065;-68
2023/10/16 06:57:47;;;;;;;6.97;2.78;;;;;;;-146.27;88.90;83481.16;5025878;28;20024;-68
2023/10/16 07:00:23;;;;;;;5.55;3.00;;;;;;;-146.27;88.93;83473.09;5013313;28;20536;-68
2023/10/16 07:02:54;;;;;;;7.38;2.90;;;;;;;-146.27;88.89;83513.28;5013997;28;20033;-68
2023/10/16 07:05:22;;;;;;;4.57;2.75;;;;;;;-146.27;89.15;83473.09;5025501;28;20026;-68
2023/10/16 07:07:52;;;;;;;11.05;3.13;;;;;;;-146.27;89.15;83469.09;5023541;28;20098;-68
2023/10/16 07:10:18;;;;;;;6.68;2.80;;;;;;;-146.27;88.86;83537.41;5030473;28;20108;-68
2023/10/16 07:12:58;;;;;;;7.43;2.90;;;;;;;-146.27;88.72;83428.91;5026712;28;20041;-67
2023/10/16 07:15:26;;;;;;;5.35;2.53;;;;;;;-146.27;88.57;83505.25;5013744;28;20383;-68
2023/10/16 07:17:51;;;;;;;6.95;2.80;;;;;;;-146.27;88.59;83481.16;5030528;28;20029;-68
2023/10/16 07:20:53;;;;;;;8.43;2.90;;;;;;;-146.27;88.59;83471.09;5032340;28;20028;-68
2023/10/16 07:23:10;;;;;;;6.60;3.25;;;;;;;-146.27;88.91;83487.16;5028576;28;20406;-68
2023/10/16 07:25:47;;;;;;;7.80;2.55;;;;;;;-146.27;88.77;83473.09;5031361;28;20513;-71
2023/10/16 07:28:15;;;;;;;8.77;3.22;;;;;;;-146.27;88.90;83451.00;5029455;28;20037;-69
2023/10/16 07:30:44;;;;;;;13.15;3.13;;;;;;;-146.27;88.90;83457.03;5023364;28;20041;-65
2023/10/16 07:33:15;;;;;;;5.85;2.85;;;;;;;-146.27;88.91;83440.94;5041599;28;20068;-66
2023/10/16 07:35:48;;;;;;;15.45;3.65;;;;;;;-146.27;88.81;83412.81;5021693;28;20021;-65
2023/10/16 07:38:19;;;;;;;10.32;2.97;;;;;;;-146.27;88.97;83428.91;5024885;28;20096;-64
2023/10/16 07:41:05;;;;;;;11.65;3.55;;;;;;;-146.27;88.95;83412.81;5030769;28;20103;-68
2023/10/16 07:43:36;;;;;;;11.15;3.50;;;;;;;-146.27;88.77;83424.88;5042618;28;20037;-70
2023/10/16 07:48:44;;;;;;;6.28;2.92;;;;;;;-146.27;88.81;83388.72;5048112;28;20090;-69
2023/10/16 07:51:10;;;;;;;6.65;3.20;;;;;;;-146.27;88.85;83396.75;5037969;28;20060;-69
2023/10/16 07:53:38;;;;;;;7.68;3.28;;;;;;;-146.27;88.79;83378.66;5040499;28;20059;-68
2023/10/16 07:59:06;;;;;;;5.57;3.38;;;;;;;-146.27;88.66;83364.59;5047945;28;20646;-69
2023/10/16 08:01:36;;;;;;;7.50;3.53;;;;;;;-146.27;88.42;83350.53;5041104;28;20517;-69
2023/10/16 08:04:06;;;;;;;6.70;3.63;;;;;;;-146.27;88.67;83332.44;5037716;28;20025;-69
2023/10/16 08:06:32;;;;;;;14.23;3.75;;;;;;;-146.27;88.45;83354.56;5039304;28;20025;-69
2023/10/16 08:11:44;;;;;;;12.77;3.38;;;;;;;-146.27;88.56;83304.31;5035921;28;20040;-69
2023/10/16 08:14:10;;;;;;;13.05;4.03;;;;;;;-146.27;88.43;83304.31;5044141;28;20541;-69
2023/10/16 08:16:39;;;;;;;9.90;4.50;;;;;;;-146.27;88.62;83306.34;5037048;28;20041;-69
2023/10/16 08:19:14;;;;;;;9.88;3.75;;;;;;;-146.27;88.56;83284.22;5045551;28;20021;-68
2023/10/16 08:21:42;;;;;;;9.63;5.43;;;;;;;-146.27;88.50;83298.28;5040507;28;20071;-70
2023/10/16 08:24:12;;;;;;;7.40;3.67;;;;;;;-146.27;88.53;83288.25;5036424;28;20115;-68
2023/10/16 08:26:42;;;;;;;8.88;2.88;;;;;;;-146.27;88.33;83326.44;5027972;28;20386;-69
2023/10/16 08:29:12;;;;;;;11.25;3.70;;;;;;;-146.27;88.47;83240.03;5042887;28;20029;-69
2023/10/16 08:31:41;;;;;;;7.20;3.00;;;;;;;-146.27;88.52;83262.13;5021968;28;20041;-69
2023/10/16 08:34:09;;;;;;;8.93;2.78;;;;;;;-146.27;88.43;83244.03;5020556;28;20033;-69
2023/10/16 08:36:35;;;;;;;6.25;3.30;;;;;;;-146.27;88.23;83225.97;5031338;28;20030;-65
2023/10/16 08:39:08;;;;;;;11.00;2.88;;;;;;;-146.27;88.21;83240.03;5029305;28;20033;-67
2023/10/16 08:42:36;;;;;;;5.15;2.58;;;;;;;-146.27;88.13;83181.75;5024912;28;20021;-64
2023/10/16 08:44:29;;;;;;;3.97;2.20;;;;;;;-146.27;88.18;83159.66;5021376;28;20042;-67
2023/10/16 08:49:24;;;;;;;3.85;2.47;;;;;;;-146.27;87.98;83145.59;5038236;28;20115;-66
2023/10/16 08:51:52;;;;;;;6.38;2.28;;;;;;;-146.27;87.89;83163.69;5038335;28;20029;-67
2023/10/16 08:57:03;;;;;;;6.03;2.22;;;;;;;-146.27;87.76;83101.38;5029348;28;20044;-65
2023/10/16 08:59:30;;;;;;;7.18;2.33;;;;;;;-146.27;87.40;83135.53;5030491;28;20029;-66
2023/10/16 09:01:58;;;;;;;10.20;2.85;;;;;;;-146.27;87.51;83083.31;5043358;28;20465;-67
2023/10/16 09:04:26;;;;;;;7.72;2.30;;;;;;;-146.27;87.38;83083.31;5031500;28;20033;-66
2023/10/16 09:06:51;;;;;;;6.85;2.40;;;;;;;-146.27;86.96;83143.59;5030061;28;20026;-66
2023/10/16 09:09:17;;;;;;;4.32;1.63;;;;;;;-146.27;86.13;83135.53;5023233;28;20499;-64
2023/10/16 09:11:44;;;;;;;5.90;2.05;;;;;;;-146.27;85.95;83133.53;5015113;28;20025;-65
2023/10/16 09:14:13;;;;;;;5.35;1.92;;;;;;;-146.27;85.60;83091.34;5034512;28;20037;-66
2023/10/16 09:16:43;;;;;;;3.15;1.35;;;;;;;-146.27;85.49;83051.16;5029523;28;20041;-65
2023/10/16 09:19:14;;;;;;;3.25;1.50;;;;;;;-146.27;84.91;83027.06;5023252;28;20024;-65
2023/10/16 09:21:43;;;;;;;4.85;1.73;;;;;;;-146.27;84.76;83033.09;5027970;28;20029;-65
2023/10/16 09:24:11;;;;;;;10.25;1.70;;;;;;;-146.27;84.43;83025.03;5028115;28;20025;-65
2023/10/16 09:26:44;;;;;;;3.95;1.30;;;;;;;-146.27;84.67;82998.94;5038035;28;20029;-65
2023/10/16 09:29:20;;;;;;;2.33;1.20;;;;;;;-146.27;84.22;82980.84;5045632;28;20032;-65
2023/10/16 09:31:46;;;;;;;6.50;1.30;;;;;;;-146.27;83.68;82978.84;5031999;28;20033;-67
2023/10/16 09:34:17;;;;;;;5.00;1.55;;;;;;;-146.27;83.53;82964.78;5020911;28;20034;-67
2023/10/16 09:36:48;;;;;;;3.50;1.30;;;;;;;-146.27;83.45;82954.72;5032387;28;20033;-67
2023/10/16 09:39:17;;;;;;;3.83;1.40;;;;;;;-146.27;82.92;82968.78;5035054;28;21201;-66
2023/10/16 09:41:46;;;;;;;3.92;1.40;;;;;;;-146.27;82.52;82930.63;5044286;28;20097;-65
2023/10/16 09:44:22;;;;;;;5.47;1.08;;;;;;;-146.27;81.91;82898.47;5027350;28;20025;-65
2023/10/16 09:49:21;;;;;;;4.65;1.83;;;;;;;-146.27;80.71;82898.47;5026286;28;20045;-65
2023/10/16 09:51:48;;;;;;;7.68;1.85;;;;;;;-146.27;80.11;82862.31;5031594;28;20025;-66
2023/10/16 09:54:14;;;;;;;4.22;1.10;;;;;;;-146.27;79.24;82852.25;5033046;28;20504;-66
2023/10/16 09:56:44;;;;;;;3.72;0.93;;;;;;;-146.27;78.12;82792.00;5050315;28;20029;-66
2023/10/16 09:59:22;;;;;;;3.08;1.00;;;;;;;-146.27;77.66;82806.06;5030542;28;20033;-67
2023/10/16 10:01:51;;;;;;;2.90;1.00;;;;;;;-146.27;76.67;82830.16;5040614;28;20029;-66
2023/10/16 10:04:19;;;;;;;2.25;0.93;;;;;;;-146.27;77.62;82727.72;5029099;28;20038;-66
2023/10/16 10:06:54;;;;;;;4.18;0.70;;;;;;;-146.27;77.26;82697.56;5026944;28;20020;-66
2023/10/16 10:09:22;;;;;;;4.60;0.95;;;;;;;-146.27;76.09;82641.31;5042432;28;20037;-66
2023/10/16 10:12:14;;;;;;;2.90;0.80;;;;;;;-146.27;75.71;82683.50;5025998;28;20423;-65
2023/10/16 10:15:02;;;;;;;1.55;0.50;;;;;;;-146.27;74.91;82633.28;5024387;28;20133;-65
2023/10/16 10:17:30;;;;;;;3.72;1.05;;;;;;;-146.27;74.03;82621.22;5013485;28;20398;-65
2023/10/16 10:20:07;;;;;;;1.60;0.73;;;;;;;-146.27;75.17;82579.03;5030978;28;20449;-66
2023/10/16 10:22:35;;;;;;;2.67;0.50;;;;;;;-146.27;73.31;82567.00;5028175;28;20124;-66
2023/10/16 10:25:35;;;;;;;1.27;0.57;;;;;;;-146.27;75.43;82536.84;5038823;28;20056;-66
2023/10/16 10:28:10;;;;;;;3.22;0.60;;;;;;;-146.27;75.21;82532.84;5051767;28;20025;-66
2023/10/16 10:30:43;;;;;;;2.55;0.60;;;;;;;-146.27;72.58;82428.38;5036823;28;20029;-65
2023/10/16 10:33:12;;;;;;;3.25;0.60;;;;;;;-146.27;70.48;82416.31;5044819;28;20040;-65
2023/10/16 10:35:38;;;;;;;2.30;0.73;;;;;;;-146.27;65.17;82352.03;5042761;28;20028;-66
2023/10/16 10:38:17;;;;;;;4.68;0.60;;;;;;;-146.27;64.41;82402.25;5046868;28;20056;-66
2023/10/16 10:41:06;;;;;;;3.33;0.50;;;;;;;-146.27;64.86;82360.09;5030882;28;20040;-65
2023/10/16 10:43:49;;;;;;;5.25;0.40;;;;;;;-146.27;66.53;82376.16;5040952;28;20037;-65
2023/10/16 10:46:26;;;;;;;1.33;0.40;;;;;;;-146.27;67.39;82400.25;5032938;28;20099;-65
2023/10/16 10:48:56;;;;;;;3.25;0.40;;;;;;;-146.27;69.36;82436.41;5020478;28;20013;-63
2023/10/16 10:51:22;;;;;;;3.65;0.60;;;;;;;-146.27;71.98;82416.31;5050345;28;20136;-64
2023/10/16 10:53:58;;;;;;;2.83;0.47;;;;;;;-146.27;70.12;82348.03;5040148;28;20060;-64
2023/10/16 10:56:40;;;;;;;3.70;0.77;;;;;;;-146.27;72.23;82424.38;5048855;28;20179;-64
2023/10/16 10:59:09;;;;;;;2.85;0.50;;;;;;;-146.27;68.40;82416.31;5038615;28;20013;-64
2023/10/16 11:01:37;;;;;;;3.00;1.20;;;;;;;-146.27;70.28;82321.91;5031620;28;20025;-64
2023/10/16 11:04:15;;;;;;;4.18;0.60;;;;;;;-146.27;66.95;82323.91;5032967;28;20037;-65
2023/10/16 11:06:52;;;;;;;1.92;0.80;;;;;;;-146.27;69.13;82348.03;5051423;28;20025;-66
2023/10/16 11:09:21;;;;;;;3.03;0.88;;;;;;;-146.27;69.04;82283.75;5041145;28;20032;-65
2023/10/16 11:11:51;;;;;;;3.10;0.70;;;;;;;-146.27;67.82;82199.38;5033662;28;20493;-68
2023/10/16 11:14:16;;;;;;;1.98;0.63;;;;;;;-146.27;65.16;82189.34;5023408;28;20120;-68
2023/10/16 11:16:48;;;;;;;3.35;0.60;;;;;;;-146.27;67.98;82151.16;5047390;28;20120;-71
2023/10/16 11:19:23;;;;;;;4.30;0.55;;;;;;;-146.27;68.72;82191.34;5028023;28;20512;-66
2023/10/16 11:21:49;;;;;;;3.28;0.52;;;;;;;-146.27;64.21;82038.69;5035610;28;20104;-67
2023/10/16 11:24:14;;;;;;;2.50;0.47;;;;;;;-146.27;61.35;81986.47;5032939;28;20108;-65
2023/10/16 11:26:42;;;;;;;3.88;0.70;;;;;;;-146.27;59.81;81902.09;5037084;28;20084;-65
2023/10/16 11:29:12;;;;;;;2.33;0.43;;;;;;;-146.27;57.19;81884.03;5045656;28;20029;-66
2023/10/16 11:31:41;;;;;;;6.13;0.63;;;;;;;-146.27;56.50;81890.06;5037912;28;20132;-66
2023/10/16 11:34:12;;;;;;;3.25;0.57;;;;;;;-146.27;58.83;81938.25;5033405;28;20045;-65
2023/10/16 11:36:38;;;;;;;0.52;0.35;;;;;;;-146.27;59.81;81936.25;5048106;28;20385;-66
2023/10/16 11:39:06;;;;;;;2.28;0.60;;;;;;;-146.27;55.98;81926.22;5031343;28;20050;-66
2023/10/16 11:41:39;;;;;;;1.63;0.60;;;;;;;-146.27;56.20;81934.25;5032920;28;20486;-65
2023/10/16 11:44:14;;;;;;;1.65;0.50;;;;;;;-146.27;59.17;81990.47;5030543;28;20488;-68
2023/10/16 11:46:52;;;;;;;1.27;0.50;;;;;;;-146.27;57.54;82068.81;5017744;28;20475;-68
2023/10/16 11:51:45;;;;;;;5.32;0.70;;;;;;;-146.27;60.13;82076.84;5031088;28;20117;-67
2023/10/16 11:54:11;;;;;;;2.03;0.80;;;;;;;-146.27;56.63;82054.75;5029391;28;20120;-68
2023/10/16 11:56:37;;;;;;;4.35;0.50;;;;;;;-146.27;58.86;81998.50;5029508;28;20025;-67
2023/10/16 11:59:09;;;;;;;6.18;1.02;;;;;;;-146.27;61.08;82177.28;5031647;28;20029;-67
2023/10/16 12:01:35;;;;;;;2.13;0.70;;;;;;;-146.27;58.68;82181.31;5014858;28;20022;-67
2023/10/16 12:04:01;;;;;;;2.92;0.73;;;;;;;-146.27;57.31;82115.00;5026221;28;20025;-67
2023/10/16 12:06:26;;;;;;;1.70;0.70;;;;;;;-146.27;58.08;82050.75;5039048;28;20663;-67
2023/10/16 12:08:52;;;;;;;3.80;0.95;;;;;;;-146.27;56.69;82193.34;5025675;28;20045;-67
2023/10/16 12:11:17;;;;;;;2.30;0.77;;;;;;;-146.27;55.81;82106.97;5032002;28;20021;-67
2023/10/16 12:13:43;;;;;;;6.30;1.08;;;;;;;-146.27;58.83;82080.88;5030076;28;20039;-66
2023/10/16 12:16:09;;;;;;;4.10;0.80;;;;;;;-146.27;57.66;82123.06;5021806;28;20433;-67
2023/10/16 12:18:34;;;;;;;5.40;1.00;;;;;;;-146.27;57.91;82078.84;5020882;28;20034;-67
2023/10/16 12:21:06;;;;;;;4.25;0.60;;;;;;;-146.27;57.35;81984.47;5040744;28;20028;-68
2023/10/16 12:23:36;;;;;;;3.35;0.80;;;;;;;-146.27;55.34;82020.59;5030174;28;20030;-69
2023/10/16 12:26:05;;;;;;;6.22;0.85;;;;;;;-146.27;57.17;82054.75;5022714;28;20105;-68
2023/10/16 12:28:34;;;;;;;4.75;0.50;;;;;;;-146.27;57.85;82070.81;5011592;28;20117;-68
2023/10/16 12:31:02;;;;;;;3.72;0.73;;;;;;;-146.27;53.41;82046.72;5022323;28;20041;-68
2023/10/16 12:33:28;;;;;;;6.53;1.10;;;;;;;-146.27;51.58;82074.84;5025773;28;20080;-69
2023/10/16 12:35:57;;;;;;;1.77;0.40;;;;;;;-146.27;52.25;82046.72;5029365;28;20528;-68
2023/10/16 12:38:25;;;;;;;4.35;0.60;;;;;;;-146.27;50.03;81962.34;5018538;28;20112;-69
2023/10/16 12:40:53;;;;;;;3.17;0.45;;;;;;;-146.27;51.32;81982.44;5036488;28;20024;-68
2023/10/16 12:43:20;;;;;;;5.30;0.52;;;;;;;-146.27;49.67;81904.13;5042289;28;20033;-68
2023/10/16 12:45:46;;;;;;;3.35;0.52;;;;;;;-146.27;48.50;82022.63;5031831;28;20034;-69
2023/10/16 12:48:11;;;;;;;4.03;0.90;;;;;;;-146.27;51.25;81988.47;5047126;28;20338;-69
2023/10/16 12:50:37;;;;;;;3.08;1.30;;;;;;;-146.27;51.83;82008.56;5032540;28;20024;-68
2023/10/16 12:53:04;;;;;;;2.65;0.50;;;;;;;-146.27;49.92;82100.97;5031071;28;20022;-68
2023/10/16 12:55:29;;;;;;;2.75;0.90;;;;;;;-146.27;53.79;82133.09;5019206;28;20025;-66
2023/10/16 12:57:55;;;;;;;5.05;0.90;;;;;;;-146.27;51.01;82213.44;5022862;28;20111;-68
2023/10/16 13:00:22;;;;;;;2.65;0.50;;;;;;;-146.27;50.58;82149.16;5038831;28;20108;-67
2023/10/16 13:02:50;;;;;;;2.30;0.30;;;;;;;-146.27;53.51;82211.44;5044567;28;20101;-68
2023/10/16 13:05:17;;;;;;;7.53;0.95;;;;;;;-146.27;56.39;82271.69;5022853;28;20083;-68
2023/10/16 13:07:43;;;;;;;2.60;0.60;;;;;;;-146.27;55.58;82323.91;5027572;28;20033;-69
2023/10/16 13:10:20;;;;;;;1.55;0.60;;;;;;;-146.27;56.01;82297.81;5026085;28;20606;-68
2023/10/16 13:12:47;;;;;;;1.20;0.52;;;;;;;-146.27;55.28;82303.84;5030377;28;20026;-69
2023/10/16 13:15:15;;;;;;;2.72;0.63;;;;;;;-146.27;60.77;82370.13;5019017;28;20133;-69
2023/10/16 13:17:41;;;;;;;3.38;0.75;;;;;;;-146.27;60.59;82426.38;5020100;28;20037;-71